sensor_id;sensor_type;location;lat;lon;timestamp;pressure;altitude;pressure_sealevel;temperature;humidity
5952;BME280;3001;42.622;23.194;2023-11-19T00:00:46;91198.25;;;6.72;68.56
5952;BME280;3001;42.622;23.194;2023-11-19T00:03:13;91206.09;;;6.85;68.67
5952;BME280;3001;42.622;23.194;2023-11-19T00:05:41;91192.78;;;6.92;69.12
5952;BME280;3001;42.622;23.194;2023-11-19T00:08:08;91202.38;;;6.91;68.60
5952;BME280;3001;42.622;23.194;2023-11-19T00:10:35;91195.94;;;6.89;68.71
5952;BME280;3001;42.622;23.194;2023-11-19T00:13:01;91202.78;;;7.17;67.92
5952;BME280;3001;42.622;23.194;2023-11-19T00:15:29;91203.47;;;7.04;68.78
5952;BME280;3001;42.622;23.194;2023-11-19T00:17:56;91194.53;;;7.15;67.09
5952;BME280;3001;42.622;23.194;2023-11-19T00:20:23;91205.97;;;7.09;68.57
5952;BME280;3001;42.622;23.194;2023-11-19T00:22:51;91206.50;;;6.92;69.07
5952;BME280;3001;42.622;23.194;2023-11-19T00:25:18;91201.28;;;7.29;69.00
5952;BME280;3001;42.622;23.194;2023-11-19T00:27:44;91200.03;;;7.27;67.28
5952;BME280;3001;42.622;23.194;2023-11-19T00:30:12;91210.09;;;7.28;67.85
5952;BME280;3001;42.622;23.194;2023-11-19T00:32:39;91210.88;;;7.10;68.73
5952;BME280;3001;42.622;23.194;2023-11-19T00:35:06;91217.00;;;7.14;67.36
5952;BME280;3001;42.622;23.194;2023-11-19T00:37:32;91211.06;;;7.14;67.89
5952;BME280;3001;42.622;23.194;2023-11-19T00:40:00;91212.34;;;6.98;66.50
5952;BME280;3001;42.622;23.194;2023-11-19T00:42:30;91217.94;;;7.05;67.38
5952;BME280;3001;42.622;23.194;2023-11-19T00:44:57;91210.09;;;6.73;68.91
5952;BME280;3001;42.622;23.194;2023-11-19T00:47:24;91224.50;;;7.16;67.65
5952;BME280;3001;42.622;23.194;2023-11-19T00:49:51;91214.94;;;6.98;67.58
5952;BME280;3001;42.622;23.194;2023-11-19T00:52:18;91214.34;;;6.82;68.32
5952;BME280;3001;42.622;23.194;2023-11-19T00:54:44;91216.22;;;6.17;68.94
5952;BME280;3001;42.622;23.194;2023-11-19T00:57:12;91220.94;;;5.86;71.31
5952;BME280;3001;42.622;23.194;2023-11-19T00:59:41;91225.06;;;5.87;72.39
5952;BME280;3001;42.622;23.194;2023-11-19T01:02:08;91219.72;;;5.79;72.30
5952;BME280;3001;42.622;23.194;2023-11-19T01:04:34;91223.59;;;5.76;72.65
5952;BME280;3001;42.622;23.194;2023-11-19T01:07:01;91229.22;;;5.83;73.18
5952;BME280;3001;42.622;23.194;2023-11-19T01:09:29;91219.81;;;6.81;68.62
5952;BME280;3001;42.622;23.194;2023-11-19T01:11:57;91233.56;;;7.13;68.11
5952;BME280;3001;42.622;23.194;2023-11-19T01:14:25;91236.69;;;5.85;73.23
5952;BME280;3001;42.622;23.194;2023-11-19T01:16:52;91218.03;;;5.64;74.68
5952;BME280;3001;42.622;23.194;2023-11-19T01:19:19;91215.47;;;6.58;71.58
5952;BME280;3001;42.622;23.194;2023-11-19T01:21:46;91206.88;;;6.44;70.35
5952;BME280;3001;42.622;23.194;2023-11-19T01:24:13;91207.53;;;6.55;70.00
5952;BME280;3001;42.622;23.194;2023-11-19T01:26:40;91225.66;;;6.68;69.02
5952;BME280;3001;42.622;23.194;2023-11-19T01:29:10;91229.72;;;6.74;68.62
5952;BME280;3001;42.622;23.194;2023-11-19T01:31:41;91220.84;;;6.62;68.43
5952;BME280;3001;42.622;23.194;2023-11-19T01:34:08;91229.38;;;6.62;68.21
5952;BME280;3001;42.622;23.194;2023-11-19T01:36:35;91234.34;;;6.35;69.54
5952;BME280;3001;42.622;23.194;2023-11-19T01:39:02;91243.84;;;6.16;71.79
5952;BME280;3001;42.622;23.194;2023-11-19T01:41:33;91222.84;;;6.46;69.67
5952;BME280;3001;42.622;23.194;2023-11-19T01:44:00;91235.56;;;6.61;69.24
5952;BME280;3001;42.622;23.194;2023-11-19T01:46:27;91239.78;;;6.52;69.66
5952;BME280;3001;42.622;23.194;2023-11-19T01:48:55;91241.81;;;6.13;68.28
5952;BME280;3001;42.622;23.194;2023-11-19T01:51:22;91248.00;;;6.36;67.68
5952;BME280;3001;42.622;23.194;2023-11-19T01:53:50;91253.22;;;6.31;68.44
5952;BME280;3001;42.622;23.194;2023-11-19T01:56:17;91243.72;;;6.26;68.85
5952;BME280;3001;42.622;23.194;2023-11-19T01:58:44;91259.34;;;6.11;70.23
5952;BME280;3001;42.622;23.194;2023-11-19T02:01:13;91247.38;;;5.97;67.87
5952;BME280;3001;42.622;23.194;2023-11-19T02:03:40;91250.97;;;6.24;68.30
5952;BME280;3001;42.622;23.194;2023-11-19T02:06:08;91244.50;;;6.03;69.99
5952;BME280;3001;42.622;23.194;2023-11-19T02:08:35;91232.59;;;5.84;68.93
5952;BME280;3001;42.622;23.194;2023-11-19T02:11:03;91232.41;;;5.99;69.59
5952;BME280;3001;42.622;23.194;2023-11-19T02:13:32;91231.50;;;5.90;69.05
5952;BME280;3001;42.622;23.194;2023-11-19T02:15:58;91239.09;;;6.00;70.30
5952;BME280;3001;42.622;23.194;2023-11-19T02:18:27;91232.22;;;5.95;68.49
5952;BME280;3001;42.622;23.194;2023-11-19T02:20:54;91218.84;;;5.93;69.47
5952;BME280;3001;42.622;23.194;2023-11-19T02:23:23;91238.63;;;6.21;69.53
5952;BME280;3001;42.622;23.194;2023-11-19T02:26:00;91238.47;;;6.13;69.17
5952;BME280;3001;42.622;23.194;2023-11-19T02:28:29;91244.81;;;5.97;69.56
5952;BME280;3001;42.622;23.194;2023-11-19T02:30:58;91233.69;;;6.01;70.16
5952;BME280;3001;42.622;23.194;2023-11-19T02:33:25;91215.66;;;6.25;68.63
5952;BME280;3001;42.622;23.194;2023-11-19T02:35:51;91207.06;;;6.29;69.34
5952;BME280;3001;42.622;23.194;2023-11-19T02:38:18;91204.81;;;6.23;67.99
5952;BME280;3001;42.622;23.194;2023-11-19T02:40:47;91210.25;;;6.21;68.33
5952;BME280;3001;42.622;23.194;2023-11-19T02:43:14;91209.69;;;6.24;67.61
5952;BME280;3001;42.622;23.194;2023-11-19T02:45:42;91207.19;;;6.19;67.71
5952;BME280;3001;42.622;23.194;2023-11-19T02:48:11;91209.84;;;6.14;67.67
5952;BME280;3001;42.622;23.194;2023-11-19T02:50:37;91220.03;;;6.24;67.45
5952;BME280;3001;42.622;23.194;2023-11-19T02:53:04;91211.91;;;6.12;68.04
5952;BME280;3001;42.622;23.194;2023-11-19T02:55:32;91212.94;;;6.35;67.69
5952;BME280;3001;42.622;23.194;2023-11-19T02:58:03;91222.19;;;6.17;68.62
5952;BME280;3001;42.622;23.194;2023-11-19T03:00:35;91222.34;;;6.26;68.63
5952;BME280;3001;42.622;23.194;2023-11-19T03:03:08;91229.34;;;6.20;68.39
5952;BME280;3001;42.622;23.194;2023-11-19T03:05:45;91232.81;;;6.34;68.25
5952;BME280;3001;42.622;23.194;2023-11-19T03:08:12;91228.16;;;6.36;67.41
5952;BME280;3001;42.622;23.194;2023-11-19T03:10:38;91227.03;;;6.42;67.43
5952;BME280;3001;42.622;23.194;2023-11-19T03:13:05;91230.50;;;6.33;67.17
5952;BME280;3001;42.622;23.194;2023-11-19T03:15:37;91239.09;;;5.71;68.53
5952;BME280;3001;42.622;23.194;2023-11-19T03:18:03;91241.75;;;5.95;68.33
5952;BME280;3001;42.622;23.194;2023-11-19T03:20:31;91237.84;;;6.21;68.43
5952;BME280;3001;42.622;23.194;2023-11-19T03:22:59;91234.66;;;6.05;68.53
5952;BME280;3001;42.622;23.194;2023-11-19T03:25:27;91242.19;;;6.25;67.46
5952;BME280;3001;42.622;23.194;2023-11-19T03:27:58;91246.97;;;6.13;68.20
5952;BME280;3001;42.622;23.194;2023-11-19T03:30:25;91226.81;;;5.92;67.82
5952;BME280;3001;42.622;23.194;2023-11-19T03:32:51;91226.75;;;5.97;69.51
5952;BME280;3001;42.622;23.194;2023-11-19T03:35:18;91236.94;;;5.55;68.85
5952;BME280;3001;42.622;23.194;2023-11-19T03:37:46;91246.38;;;5.64;69.39
5952;BME280;3001;42.622;23.194;2023-11-19T03:40:13;91240.22;;;5.94;69.73
5952;BME280;3001;42.622;23.194;2023-11-19T03:42:40;91259.41;;;6.06;69.71
5952;BME280;3001;42.622;23.194;2023-11-19T03:45:07;91250.91;;;5.82;68.81
5952;BME280;3001;42.622;23.194;2023-11-19T03:47:33;91260.72;;;5.75;69.48
5952;BME280;3001;42.622;23.194;2023-11-19T03:50:00;91258.47;;;5.69;70.25
5952;BME280;3001;42.622;23.194;2023-11-19T03:52:28;91275.53;;;5.60;70.99
5952;BME280;3001;42.622;23.194;2023-11-19T03:54:56;91279.06;;;6.02;70.12
5952;BME280;3001;42.622;23.194;2023-11-19T03:57:23;91275.31;;;5.90;69.18
5952;BME280;3001;42.622;23.194;2023-11-19T03:59:50;91263.06;;;5.72;70.14
5952;BME280;3001;42.622;23.194;2023-11-19T04:02:17;91274.34;;;5.81;69.73
5952;BME280;3001;42.622;23.194;2023-11-19T04:04:43;91268.84;;;5.92;69.77
5952;BME280;3001;42.622;23.194;2023-11-19T04:07:10;91268.72;;;5.74;70.55
5952;BME280;3001;42.622;23.194;2023-11-19T04:09:37;91284.66;;;6.09;69.62
5952;BME280;3001;42.622;23.194;2023-11-19T04:12:05;91287.56;;;6.03;69.98
5952;BME280;3001;42.622;23.194;2023-11-19T04:14:32;91302.13;;;6.17;69.67
5952;BME280;3001;42.622;23.194;2023-11-19T04:16:59;91296.28;;;6.07;67.38
5952;BME280;3001;42.622;23.194;2023-11-19T04:19:25;91300.63;;;5.83;68.96
5952;BME280;3001;42.622;23.194;2023-11-19T04:21:52;91299.63;;;5.79;69.94
5952;BME280;3001;42.622;23.194;2023-11-19T04:24:19;91301.72;;;5.72;69.55
5952;BME280;3001;42.622;23.194;2023-11-19T04:26:46;91295.78;;;5.71;69.42
5952;BME280;3001;42.622;23.194;2023-11-19T04:29:15;91304.78;;;5.74;69.85
5952;BME280;3001;42.622;23.194;2023-11-19T04:31:43;91303.56;;;5.66;69.24
5952;BME280;3001;42.622;23.194;2023-11-19T04:34:11;91308.09;;;5.84;68.86
5952;BME280;3001;42.622;23.194;2023-11-19T04:36:37;91309.94;;;5.74;69.39
5952;BME280;3001;42.622;23.194;2023-11-19T04:39:05;91311.63;;;5.93;69.84
5952;BME280;3001;42.622;23.194;2023-11-19T04:41:34;91304.78;;;5.74;69.98
5952;BME280;3001;42.622;23.194;2023-11-19T04:44:01;91314.22;;;5.93;69.14
5952;BME280;3001;42.622;23.194;2023-11-19T04:46:29;91301.34;;;5.88;67.92
5952;BME280;3001;42.622;23.194;2023-11-19T04:48:56;91298.59;;;5.80;68.82
5952;BME280;3001;42.622;23.194;2023-11-19T04:51:22;91298.31;;;5.81;66.84
5952;BME280;3001;42.622;23.194;2023-11-19T04:53:49;91290.91;;;5.70;67.93
5952;BME280;3001;42.622;23.194;2023-11-19T04:56:16;91290.00;;;5.56;68.45
5952;BME280;3001;42.622;23.194;2023-11-19T04:58:45;91306.00;;;5.53;69.17
5952;BME280;3001;42.622;23.194;2023-11-19T05:01:14;91300.09;;;5.52;68.86
5952;BME280;3001;42.622;23.194;2023-11-19T05:03:43;91278.09;;;5.60;69.17
5952;BME280;3001;42.622;23.194;2023-11-19T05:06:10;91306.19;;;5.61;69.72
5952;BME280;3001;42.622;23.194;2023-11-19T05:08:37;91316.91;;;5.78;70.16
5952;BME280;3001;42.622;23.194;2023-11-19T05:11:04;91330.25;;;5.85;70.23
5952;BME280;3001;42.622;23.194;2023-11-19T05:13:31;91325.88;;;5.81;68.43
5952;BME280;3001;42.622;23.194;2023-11-19T05:15:58;91326.38;;;5.88;68.43
5952;BME280;3001;42.622;23.194;2023-11-19T05:18:24;91326.41;;;5.83;69.57
5952;BME280;3001;42.622;23.194;2023-11-19T05:20:52;91321.03;;;5.79;68.08
5952;BME280;3001;42.622;23.194;2023-11-19T05:23:19;91330.63;;;6.02;67.01
5952;BME280;3001;42.622;23.194;2023-11-19T05:25:45;91320.00;;;6.09;66.73
5952;BME280;3001;42.622;23.194;2023-11-19T05:28:13;91320.41;;;5.92;67.89
5952;BME280;3001;42.622;23.194;2023-11-19T05:30:40;91314.16;;;5.98;67.87
5952;BME280;3001;42.622;23.194;2023-11-19T05:33:07;91317.31;;;6.19;66.83
5952;BME280;3001;42.622;23.194;2023-11-19T05:35:34;91319.78;;;6.29;66.94
5952;BME280;3001;42.622;23.194;2023-11-19T05:38:02;91323.69;;;6.26;66.47
5952;BME280;3001;42.622;23.194;2023-11-19T05:40:29;91326.44;;;6.35;66.13
5952;BME280;3001;42.622;23.194;2023-11-19T05:42:56;91323.09;;;6.34;67.00
5952;BME280;3001;42.622;23.194;2023-11-19T05:45:22;91324.09;;;6.38;66.41
5952;BME280;3001;42.622;23.194;2023-11-19T05:47:49;91332.22;;;6.22;67.02
5952;BME280;3001;42.622;23.194;2023-11-19T05:50:17;91335.72;;;6.07;66.65
5952;BME280;3001;42.622;23.194;2023-11-19T05:52:43;91328.28;;;6.29;66.82
5952;BME280;3001;42.622;23.194;2023-11-19T05:55:11;91335.44;;;6.37;66.12
5952;BME280;3001;42.622;23.194;2023-11-19T05:57:39;91319.63;;;6.20;66.89
5952;BME280;3001;42.622;23.194;2023-11-19T06:00:07;91334.34;;;6.43;66.89
5952;BME280;3001;42.622;23.194;2023-11-19T06:02:36;91337.25;;;6.37;66.93
5952;BME280;3001;42.622;23.194;2023-11-19T06:05:04;91348.75;;;6.21;66.67
5952;BME280;3001;42.622;23.194;2023-11-19T06:07:32;91357.06;;;6.13;68.08
5952;BME280;3001;42.622;23.194;2023-11-19T06:09:58;91355.97;;;6.24;67.28
5952;BME280;3001;42.622;23.194;2023-11-19T06:12:26;91366.97;;;6.29;67.56
5952;BME280;3001;42.622;23.194;2023-11-19T06:14:54;91364.81;;;6.41;67.44
5952;BME280;3001;42.622;23.194;2023-11-19T06:17:22;91353.94;;;6.44;66.23
5952;BME280;3001;42.622;23.194;2023-11-19T06:19:48;91359.09;;;6.44;66.69
5952;BME280;3001;42.622;23.194;2023-11-19T06:22:15;91365.22;;;6.25;65.80
5952;BME280;3001;42.622;23.194;2023-11-19T06:24:42;91351.13;;;6.12;66.76
5952;BME280;3001;42.622;23.194;2023-11-19T06:27:08;91341.72;;;6.03;67.83
5952;BME280;3001;42.622;23.194;2023-11-19T06:29:37;91356.28;;;6.17;69.12
5952;BME280;3001;42.622;23.194;2023-11-19T06:32:06;91362.91;;;6.23;70.23
5952;BME280;3001;42.622;23.194;2023-11-19T06:34:33;91343.25;;;6.27;70.03
5952;BME280;3001;42.622;23.194;2023-11-19T06:37:00;91351.47;;;6.34;69.32
5952;BME280;3001;42.622;23.194;2023-11-19T06:39:28;91368.91;;;6.42;68.72
5952;BME280;3001;42.622;23.194;2023-11-19T06:41:55;91369.78;;;6.33;66.90
5952;BME280;3001;42.622;23.194;2023-11-19T06:44:21;91362.31;;;6.31;67.21
5952;BME280;3001;42.622;23.194;2023-11-19T06:46:49;91372.59;;;6.36;66.74
5952;BME280;3001;42.622;23.194;2023-11-19T06:49:16;91371.88;;;6.02;67.61
5952;BME280;3001;42.622;23.194;2023-11-19T06:51:43;91364.25;;;5.87;66.88
5952;BME280;3001;42.622;23.194;2023-11-19T06:54:11;91362.75;;;5.81;67.81
5952;BME280;3001;42.622;23.194;2023-11-19T06:56:38;91366.44;;;6.04;68.46
5952;BME280;3001;42.622;23.194;2023-11-19T06:59:05;91360.22;;;5.71;68.98
5952;BME280;3001;42.622;23.194;2023-11-19T07:01:34;91373.16;;;6.00;69.35
5952;BME280;3001;42.622;23.194;2023-11-19T07:04:03;91361.50;;;6.07;68.57
5952;BME280;3001;42.622;23.194;2023-11-19T07:06:34;91362.53;;;6.06;68.08
5952;BME280;3001;42.622;23.194;2023-11-19T07:09:01;91363.31;;;6.07;66.63
5952;BME280;3001;42.622;23.194;2023-11-19T07:11:34;91387.63;;;5.96;66.01
5952;BME280;3001;42.622;23.194;2023-11-19T07:14:01;91386.94;;;5.85;67.32
5952;BME280;3001;42.622;23.194;2023-11-19T07:16:28;91375.78;;;5.95;67.04
5952;BME280;3001;42.622;23.194;2023-11-19T07:18:55;91372.13;;;6.01;66.18
5952;BME280;3001;42.622;23.194;2023-11-19T07:21:23;91377.13;;;5.87;66.22
5952;BME280;3001;42.622;23.194;2023-11-19T07:23:49;91374.47;;;5.59;66.22
5952;BME280;3001;42.622;23.194;2023-11-19T07:26:17;91379.97;;;5.47;67.74
5952;BME280;3001;42.622;23.194;2023-11-19T07:28:43;91375.47;;;5.24;66.96
5952;BME280;3001;42.622;23.194;2023-11-19T07:31:11;91386.47;;;5.35;68.74
5952;BME280;3001;42.622;23.194;2023-11-19T07:33:39;91401.00;;;5.16;68.11
5952;BME280;3001;42.622;23.194;2023-11-19T07:36:08;91405.06;;;5.27;67.79
5952;BME280;3001;42.622;23.194;2023-11-19T07:38:36;91409.22;;;5.23;67.79
5952;BME280;3001;42.622;23.194;2023-11-19T07:41:04;91407.25;;;5.48;67.86
5952;BME280;3001;42.622;23.194;2023-11-19T07:43:32;91385.94;;;5.38;67.73
5952;BME280;3001;42.622;23.194;2023-11-19T07:45:59;91410.81;;;5.57;67.77
5952;BME280;3001;42.622;23.194;2023-11-19T07:48:25;91394.88;;;5.55;67.44
5952;BME280;3001;42.622;23.194;2023-11-19T07:50:53;91394.38;;;5.53;67.06
5952;BME280;3001;42.622;23.194;2023-11-19T07:53:19;91392.75;;;5.62;67.83
5952;BME280;3001;42.622;23.194;2023-11-19T07:55:47;91411.19;;;5.84;66.84
5952;BME280;3001;42.622;23.194;2023-11-19T07:58:14;91393.53;;;5.63;67.00
5952;BME280;3001;42.622;23.194;2023-11-19T08:00:41;91397.16;;;5.62;68.49
5952;BME280;3001;42.622;23.194;2023-11-19T08:03:08;91402.22;;;5.72;67.66
5952;BME280;3001;42.622;23.194;2023-11-19T08:05:34;91404.75;;;5.38;66.61
5952;BME280;3001;42.622;23.194;2023-11-19T08:08:01;91411.38;;;5.49;67.41
5952;BME280;3001;42.622;23.194;2023-11-19T08:10:28;91412.41;;;5.48;67.36
5952;BME280;3001;42.622;23.194;2023-11-19T08:12:56;91408.97;;;5.68;67.54
5952;BME280;3001;42.622;23.194;2023-11-19T08:15:23;91406.41;;;5.63;68.19
5952;BME280;3001;42.622;23.194;2023-11-19T08:17:49;91407.63;;;5.80;67.10
5952;BME280;3001;42.622;23.194;2023-11-19T08:20:16;91416.16;;;6.09;65.68
5952;BME280;3001;42.622;23.194;2023-11-19T08:22:43;91421.50;;;5.84;66.76
5952;BME280;3001;42.622;23.194;2023-11-19T08:25:09;91410.19;;;5.80;66.46
5952;BME280;3001;42.622;23.194;2023-11-19T08:27:36;91405.03;;;5.80;67.64
5952;BME280;3001;42.622;23.194;2023-11-19T08:30:05;91398.94;;;6.00;67.02
5952;BME280;3001;42.622;23.194;2023-11-19T08:32:32;91409.09;;;6.20;66.62
5952;BME280;3001;42.622;23.194;2023-11-19T08:34:59;91410.88;;;6.24;65.66
5952;BME280;3001;42.622;23.194;2023-11-19T08:37:26;91404.22;;;6.18;66.84
5952;BME280;3001;42.622;23.194;2023-11-19T08:39:52;91419.66;;;6.23;66.81
5952;BME280;3001;42.622;23.194;2023-11-19T08:42:19;91430.56;;;6.10;67.22
5952;BME280;3001;42.622;23.194;2023-11-19T08:44:49;91437.75;;;6.18;67.99
5952;BME280;3001;42.622;23.194;2023-11-19T08:47:17;91431.59;;;6.14;68.58
5952;BME280;3001;42.622;23.194;2023-11-19T08:49:44;91430.31;;;6.12;68.49
5952;BME280;3001;42.622;23.194;2023-11-19T08:52:11;91427.53;;;6.03;68.02
5952;BME280;3001;42.622;23.194;2023-11-19T08:54:37;91431.16;;;6.02;67.13
5952;BME280;3001;42.622;23.194;2023-11-19T08:57:04;91434.13;;;6.19;66.83
5952;BME280;3001;42.622;23.194;2023-11-19T08:59:32;91438.69;;;6.27;66.92
5952;BME280;3001;42.622;23.194;2023-11-19T09:01:59;91433.44;;;6.09;66.27
5952;BME280;3001;42.622;23.194;2023-11-19T09:04:27;91436.06;;;6.04;66.72
5952;BME280;3001;42.622;23.194;2023-11-19T09:06:54;91421.28;;;6.14;66.51
5952;BME280;3001;42.622;23.194;2023-11-19T09:09:21;91437.22;;;6.21;66.22
5952;BME280;3001;42.622;23.194;2023-11-19T09:11:47;91430.56;;;6.15;67.32
5952;BME280;3001;42.622;23.194;2023-11-19T09:14:14;91427.09;;;6.30;65.19
5952;BME280;3001;42.622;23.194;2023-11-19T09:16:41;91425.25;;;6.30;66.83
5952;BME280;3001;42.622;23.194;2023-11-19T09:19:08;91414.19;;;6.30;64.91
5952;BME280;3001;42.622;23.194;2023-11-19T09:21:36;91420.75;;;6.12;66.33
5952;BME280;3001;42.622;23.194;2023-11-19T09:24:04;91434.19;;;6.09;68.13
5952;BME280;3001;42.622;23.194;2023-11-19T09:26:32;91443.81;;;5.99;67.58
5952;BME280;3001;42.622;23.194;2023-11-19T09:28:59;91440.53;;;5.93;69.17
5952;BME280;3001;42.622;23.194;2023-11-19T09:31:26;91448.13;;;6.08;69.12
5952;BME280;3001;42.622;23.194;2023-11-19T09:33:53;91442.03;;;5.99;67.82
5952;BME280;3001;42.622;23.194;2023-11-19T09:36:19;91435.22;;;5.70;68.22
5952;BME280;3001;42.622;23.194;2023-11-19T09:38:47;91418.06;;;5.50;69.58
5952;BME280;3001;42.622;23.194;2023-11-19T09:41:14;91406.59;;;5.71;68.69
5952;BME280;3001;42.622;23.194;2023-11-19T09:43:42;91408.09;;;5.82;70.26
5952;BME280;3001;42.622;23.194;2023-11-19T09:46:09;91397.91;;;5.62;69.77
5952;BME280;3001;42.622;23.194;2023-11-19T09:48:38;91388.63;;;5.61;68.97
5952;BME280;3001;42.622;23.194;2023-11-19T09:51:07;91378.78;;;5.68;68.85
5952;BME280;3001;42.622;23.194;2023-11-19T09:53:34;91372.03;;;5.77;67.92
5952;BME280;3001;42.622;23.194;2023-11-19T09:56:04;91370.00;;;5.79;68.05
5952;BME280;3001;42.622;23.194;2023-11-19T09:58:32;91350.94;;;5.70;67.80
5952;BME280;3001;42.622;23.194;2023-11-19T10:01:00;91368.00;;;6.05;67.13
5952;BME280;3001;42.622;23.194;2023-11-19T10:03:32;91366.22;;;6.00;65.89
5952;BME280;3001;42.622;23.194;2023-11-19T10:06:00;91381.31;;;6.12;66.25
5952;BME280;3001;42.622;23.194;2023-11-19T10:08:27;91384.91;;;6.16;67.14
5952;BME280;3001;42.622;23.194;2023-11-19T10:10:54;91387.91;;;6.51;65.87
5952;BME280;3001;42.622;23.194;2023-11-19T10:13:26;91372.91;;;6.53;64.66
5952;BME280;3001;42.622;23.194;2023-11-19T10:15:52;91373.28;;;6.42;63.63
5952;BME280;3001;42.622;23.194;2023-11-19T10:18:24;91375.63;;;6.43;64.21
5952;BME280;3001;42.622;23.194;2023-11-19T10:20:51;91389.31;;;6.44;64.02
5952;BME280;3001;42.622;23.194;2023-11-19T10:23:18;91389.63;;;6.61;63.09
5952;BME280;3001;42.622;23.194;2023-11-19T10:25:45;91382.22;;;6.78;61.94
5952;BME280;3001;42.622;23.194;2023-11-19T10:28:11;91361.06;;;6.99;59.52
5952;BME280;3001;42.622;23.194;2023-11-19T10:30:42;91342.28;;;7.12;62.14
5952;BME280;3001;42.622;23.194;2023-11-19T10:33:10;91349.38;;;7.43;62.27
5952;BME280;3001;42.622;23.194;2023-11-19T10:35:51;91347.63;;;7.57;59.47
5952;BME280;3001;42.622;23.194;2023-11-19T10:38:18;91339.16;;;7.52;58.17
5952;BME280;3001;42.622;23.194;2023-11-19T10:40:46;91352.53;;;7.59;59.03
5952;BME280;3001;42.622;23.194;2023-11-19T10:43:12;91357.13;;;7.62;59.40
5952;BME280;3001;42.622;23.194;2023-11-19T10:45:40;91359.56;;;7.53;57.99
5952;BME280;3001;42.622;23.194;2023-11-19T10:48:08;91360.72;;;7.47;59.13
5952;BME280;3001;42.622;23.194;2023-11-19T10:50:36;91363.28;;;7.47;59.77
5952;BME280;3001;42.622;23.194;2023-11-19T10:53:04;91364.25;;;7.51;58.93
5952;BME280;3001;42.622;23.194;2023-11-19T10:55:32;91360.56;;;7.39;59.13
5952;BME280;3001;42.622;23.194;2023-11-19T10:58:01;91365.34;;;7.45;59.49
5952;BME280;3001;42.622;23.194;2023-11-19T11:00:29;91361.38;;;7.53;60.27
5952;BME280;3001;42.622;23.194;2023-11-19T11:03:00;91360.13;;;7.50;58.40
5952;BME280;3001;42.622;23.194;2023-11-19T11:05:32;91344.22;;;7.62;60.07
5952;BME280;3001;42.622;23.194;2023-11-19T11:08:00;91337.63;;;7.51;58.30
5952;BME280;3001;42.622;23.194;2023-11-19T11:10:28;91316.78;;;7.47;58.11
5952;BME280;3001;42.622;23.194;2023-11-19T11:12:59;91316.81;;;7.61;58.36
5952;BME280;3001;42.622;23.194;2023-11-19T11:15:30;91317.09;;;7.59;61.02
5952;BME280;3001;42.622;23.194;2023-11-19T11:17:59;91314.50;;;7.59;59.12
5952;BME280;3001;42.622;23.194;2023-11-19T11:20:29;91324.75;;;7.83;60.19
5952;BME280;3001;42.622;23.194;2023-11-19T11:23:26;91323.22;;;7.63;57.23
5952;BME280;3001;42.622;23.194;2023-11-19T11:26:11;91322.03;;;7.74;59.62
5952;BME280;3001;42.622;23.194;2023-11-19T11:28:46;91326.81;;;7.99;59.38
5952;BME280;3001;42.622;23.194;2023-11-19T11:31:30;91334.38;;;8.28;56.29
5952;BME280;3001;42.622;23.194;2023-11-19T11:34:30;91321.66;;;8.31;54.78
5952;BME280;3001;42.622;23.194;2023-11-19T11:37:11;91314.00;;;8.53;55.92
5952;BME280;3001;42.622;23.194;2023-11-19T11:39:43;91309.88;;;8.79;56.12
5952;BME280;3001;42.622;23.194;2023-11-19T11:42:31;91295.41;;;8.64;53.73
5952;BME280;3001;42.622;23.194;2023-11-19T11:44:58;91292.53;;;8.79;55.16
5952;BME280;3001;42.622;23.194;2023-11-19T11:47:25;91296.53;;;8.85;55.33
5952;BME280;3001;42.622;23.194;2023-11-19T11:49:52;91283.78;;;9.02;53.78
5952;BME280;3001;42.622;23.194;2023-11-19T11:52:21;91287.91;;;9.03;52.75
5952;BME280;3001;42.622;23.194;2023-11-19T11:54:49;91290.84;;;9.10;53.60
5952;BME280;3001;42.622;23.194;2023-11-19T11:57:16;91308.16;;;9.01;53.46
5952;BME280;3001;42.622;23.194;2023-11-19T11:59:46;91289.13;;;9.19;53.45
5952;BME280;3001;42.622;23.194;2023-11-19T12:02:15;91292.09;;;9.48;53.13
5952;BME280;3001;42.622;23.194;2023-11-19T12:04:43;91288.44;;;9.49;53.02
5952;BME280;3001;42.622;23.194;2023-11-19T12:07:12;91284.69;;;9.77;51.65
5952;BME280;3001;42.622;23.194;2023-11-19T12:09:42;91292.38;;;10.04;50.50
5952;BME280;3001;42.622;23.194;2023-11-19T12:12:18;91278.41;;;10.00;49.61
5952;BME280;3001;42.622;23.194;2023-11-19T12:15:16;91280.50;;;9.68;48.46
5952;BME280;3001;42.622;23.194;2023-11-19T12:17:49;91281.47;;;9.72;49.49
5952;BME280;3001;42.622;23.194;2023-11-19T12:20:15;91283.25;;;9.49;49.25
5952;BME280;3001;42.622;23.194;2023-11-19T12:22:42;91279.34;;;9.38;49.74
5952;BME280;3001;42.622;23.194;2023-11-19T12:25:12;91262.19;;;9.29;49.92
5952;BME280;3001;42.622;23.194;2023-11-19T12:27:39;91274.00;;;8.99;49.93
5952;BME280;3001;42.622;23.194;2023-11-19T12:30:07;91263.53;;;8.91;52.43
5952;BME280;3001;42.622;23.194;2023-11-19T12:32:38;91255.84;;;8.99;52.06
5952;BME280;3001;42.622;23.194;2023-11-19T12:35:06;91254.13;;;8.95;52.38
5952;BME280;3001;42.622;23.194;2023-11-19T12:37:39;91249.50;;;9.05;52.55
5952;BME280;3001;42.622;23.194;2023-11-19T12:40:13;91253.19;;;9.26;51.30
5952;BME280;3001;42.622;23.194;2023-11-19T12:42:40;91256.91;;;9.34;51.54
5952;BME280;3001;42.622;23.194;2023-11-19T12:45:08;91255.94;;;9.43;50.89
5952;BME280;3001;42.622;23.194;2023-11-19T12:47:36;91250.91;;;9.47;52.12
5952;BME280;3001;42.622;23.194;2023-11-19T12:50:03;91249.38;;;9.46;51.27
5952;BME280;3001;42.622;23.194;2023-11-19T12:52:30;91248.88;;;9.22;50.36
5952;BME280;3001;42.622;23.194;2023-11-19T12:54:56;91247.69;;;9.28;51.60
5952;BME280;3001;42.622;23.194;2023-11-19T12:57:37;91236.25;;;9.07;51.24
5952;BME280;3001;42.622;23.194;2023-11-19T13:00:06;91234.31;;;9.12;52.63
5952;BME280;3001;42.622;23.194;2023-11-19T13:02:45;91217.00;;;8.86;51.97
5952;BME280;3001;42.622;23.194;2023-11-19T13:05:26;91229.59;;;8.79;53.79
5952;BME280;3001;42.622;23.194;2023-11-19T13:08:00;91230.38;;;8.79;53.42
5952;BME280;3001;42.622;23.194;2023-11-19T13:10:28;91236.28;;;8.93;54.26
5952;BME280;3001;42.622;23.194;2023-11-19T13:13:04;91244.22;;;9.10;53.01
5952;BME280;3001;42.622;23.194;2023-11-19T13:15:31;91246.59;;;9.20;51.52
5952;BME280;3001;42.622;23.194;2023-11-19T13:17:58;91248.59;;;9.23;50.59
5952;BME280;3001;42.622;23.194;2023-11-19T13:20:25;91238.78;;;9.34;49.13
5952;BME280;3001;42.622;23.194;2023-11-19T13:22:59;91235.78;;;9.40;47.41
5952;BME280;3001;42.622;23.194;2023-11-19T13:25:26;91229.47;;;9.33;49.86
5952;BME280;3001;42.622;23.194;2023-11-19T13:27:53;91226.94;;;9.19;49.46